sensor_id;sensor_type;location;lat;lon;timestamp;P1;durP1;ratioP1;P2;durP2;ratioP2
9888;SDS011;4983;42.112;24.738;2023-05-02T00:00:33;5.93;;;3.53;;
9888;SDS011;4983;42.112;24.738;2023-05-02T00:03:00;4.90;;;3.10;;
9888;SDS011;4983;42.112;24.738;2023-05-02T00:05:28;3.70;;;3.30;;
9888;SDS011;4983;42.112;24.738;2023-05-02T00:07:55;3.40;;;3.10;;
9888;SDS011;4983;42.112;24.738;2023-05-02T00:10:23;4.10;;;3.53;;
9888;SDS011;4983;42.112;24.738;2023-05-02T00:12:49;4.10;;;3.70;;
9888;SDS011;4983;42.112;24.738;2023-05-02T00:15:16;3.53;;;3.20;;
9888;SDS011;4983;42.112;24.738;2023-05-02T00:17:44;3.73;;;3.30;;
9888;SDS011;4983;42.112;24.738;2023-05-02T00:20:11;3.33;;;3.03;;
9888;SDS011;4983;42.112;24.738;2023-05-02T00:22:38;4.33;;;3.20;;
9888;SDS011;4983;42.112;24.738;2023-05-02T00:25:06;3.40;;;3.10;;
9888;SDS011;4983;42.112;24.738;2023-05-02T00:27:35;3.70;;;3.30;;
9888;SDS011;4983;42.112;24.738;2023-05-02T00:30:01;3.83;;;3.50;;
9888;SDS011;4983;42.112;24.738;2023-05-02T00:32:29;3.57;;;3.27;;
9888;SDS011;4983;42.112;24.738;2023-05-02T00:34:56;4.17;;;3.77;;
9888;SDS011;4983;42.112;24.738;2023-05-02T00:37:24;4.37;;;3.53;;
9888;SDS011;4983;42.112;24.738;2023-05-02T00:39:51;4.50;;;3.60;;
9888;SDS011;4983;42.112;24.738;2023-05-02T00:42:18;4.43;;;3.97;;
9888;SDS011;4983;42.112;24.738;2023-05-02T00:44:46;5.40;;;3.80;;
9888;SDS011;4983;42.112;24.738;2023-05-02T00:47:13;4.60;;;3.93;;
9888;SDS011;4983;42.112;24.738;2023-05-02T00:49:40;5.37;;;3.60;;
9888;SDS011;4983;42.112;24.738;2023-05-02T00:52:07;5.03;;;3.50;;
9888;SDS011;4983;42.112;24.738;2023-05-02T00:54:34;5.57;;;3.87;;
9888;SDS011;4983;42.112;24.738;2023-05-02T00:57:02;4.20;;;3.77;;
9888;SDS011;4983;42.112;24.738;2023-05-02T00:59:29;4.10;;;3.63;;
9888;SDS011;4983;42.112;24.738;2023-05-02T01:01:59;4.27;;;3.83;;
9888;SDS011;4983;42.112;24.738;2023-05-02T01:04:30;4.20;;;3.80;;
9888;SDS011;4983;42.112;24.738;2023-05-02T01:07:04;5.17;;;3.73;;
9888;SDS011;4983;42.112;24.738;2023-05-02T01:09:36;4.77;;;4.10;;
9888;SDS011;4983;42.112;24.738;2023-05-02T01:12:09;5.90;;;4.70;;
9888;SDS011;4983;42.112;24.738;2023-05-02T01:14:41;6.37;;;4.57;;
9888;SDS011;4983;42.112;24.738;2023-05-02T01:17:11;5.23;;;4.30;;
9888;SDS011;4983;42.112;24.738;2023-05-02T01:19:38;6.40;;;4.67;;
9888;SDS011;4983;42.112;24.738;2023-05-02T01:22:07;4.73;;;4.00;;
9888;SDS011;4983;42.112;24.738;2023-05-02T01:24:35;5.70;;;4.20;;
9888;SDS011;4983;42.112;24.738;2023-05-02T01:27:06;5.23;;;4.73;;
9888;SDS011;4983;42.112;24.738;2023-05-02T01:29:36;4.07;;;3.63;;
9888;SDS011;4983;42.112;24.738;2023-05-02T01:32:03;4.43;;;4.00;;
9888;SDS011;4983;42.112;24.738;2023-05-02T01:34:31;4.93;;;4.43;;
9888;SDS011;4983;42.112;24.738;2023-05-02T01:36:58;5.97;;;4.77;;
9888;SDS011;4983;42.112;24.738;2023-05-02T01:39:26;4.93;;;4.43;;
9888;SDS011;4983;42.112;24.738;2023-05-02T01:41:54;5.27;;;4.53;;
9888;SDS011;4983;42.112;24.738;2023-05-02T01:44:22;4.83;;;4.30;;
9888;SDS011;4983;42.112;24.738;2023-05-02T01:46:52;5.07;;;4.37;;
9888;SDS011;4983;42.112;24.738;2023-05-02T01:49:20;4.60;;;4.10;;
9888;SDS011;4983;42.112;24.738;2023-05-02T01:51:48;6.87;;;4.57;;
9888;SDS011;4983;42.112;24.738;2023-05-02T01:54:16;4.27;;;3.83;;
9888;SDS011;4983;42.112;24.738;2023-05-02T01:56:43;5.20;;;4.10;;
9888;SDS011;4983;42.112;24.738;2023-05-02T01:59:11;4.50;;;3.87;;
9888;SDS011;4983;42.112;24.738;2023-05-02T02:01:39;4.37;;;3.57;;
9888;SDS011;4983;42.112;24.738;2023-05-02T02:04:09;4.30;;;3.87;;
9888;SDS011;4983;42.112;24.738;2023-05-02T02:06:36;4.60;;;3.67;;
9888;SDS011;4983;42.112;24.738;2023-05-02T02:09:04;3.50;;;3.10;;
9888;SDS011;4983;42.112;24.738;2023-05-02T02:11:33;5.17;;;4.03;;
9888;SDS011;4983;42.112;24.738;2023-05-02T02:14:00;4.07;;;3.17;;
9888;SDS011;4983;42.112;24.738;2023-05-02T02:16:29;5.20;;;3.90;;
9888;SDS011;4983;42.112;24.738;2023-05-02T02:18:56;4.10;;;3.47;;
9888;SDS011;4983;42.112;24.738;2023-05-02T02:21:26;3.83;;;3.43;;
9888;SDS011;4983;42.112;24.738;2023-05-02T02:23:54;4.00;;;3.60;;
9888;SDS011;4983;42.112;24.738;2023-05-02T02:26:22;5.57;;;3.67;;
9888;SDS011;4983;42.112;24.738;2023-05-02T02:28:50;5.57;;;4.10;;
9888;SDS011;4983;42.112;24.738;2023-05-02T02:31:16;4.07;;;3.70;;
9888;SDS011;4983;42.112;24.738;2023-05-02T02:33:43;4.33;;;3.70;;
9888;SDS011;4983;42.112;24.738;2023-05-02T02:36:11;3.80;;;3.40;;
9888;SDS011;4983;42.112;24.738;2023-05-02T02:38:41;5.00;;;4.47;;
9888;SDS011;4983;42.112;24.738;2023-05-02T02:41:11;5.10;;;4.10;;
9888;SDS011;4983;42.112;24.738;2023-05-02T02:43:39;5.77;;;4.20;;
9888;SDS011;4983;42.112;24.738;2023-05-02T02:46:27;5.90;;;4.37;;
9888;SDS011;4983;42.112;24.738;2023-05-02T02:48:56;3.70;;;3.27;;
9888;SDS011;4983;42.112;24.738;2023-05-02T02:51:29;4.63;;;3.83;;
9888;SDS011;4983;42.112;24.738;2023-05-02T02:53:59;6.37;;;4.17;;
9888;SDS011;4983;42.112;24.738;2023-05-02T02:56:27;4.87;;;4.20;;
9888;SDS011;4983;42.112;24.738;2023-05-02T02:58:56;6.30;;;4.40;;
9888;SDS011;4983;42.112;24.738;2023-05-02T03:01:23;5.03;;;3.63;;
9888;SDS011;4983;42.112;24.738;2023-05-02T03:03:52;4.80;;;3.70;;
9888;SDS011;4983;42.112;24.738;2023-05-02T03:06:20;4.03;;;3.63;;
9888;SDS011;4983;42.112;24.738;2023-05-02T03:08:46;4.80;;;4.20;;
9888;SDS011;4983;42.112;24.738;2023-05-02T03:11:14;7.43;;;4.07;;
9888;SDS011;4983;42.112;24.738;2023-05-02T03:13:41;4.37;;;3.30;;
9888;SDS011;4983;42.112;24.738;2023-05-02T03:16:21;4.07;;;3.53;;
9888;SDS011;4983;42.112;24.738;2023-05-02T03:18:51;4.57;;;4.07;;
9888;SDS011;4983;42.112;24.738;2023-05-02T03:21:18;5.63;;;3.87;;
9888;SDS011;4983;42.112;24.738;2023-05-02T03:23:45;5.25;;;4.35;;
9888;SDS011;4983;42.112;24.738;2023-05-02T03:26:11;5.30;;;4.40;;
9888;SDS011;4983;42.112;24.738;2023-05-02T03:28:39;5.30;;;3.90;;
9888;SDS011;4983;42.112;24.738;2023-05-02T03:31:06;4.50;;;4.10;;
9888;SDS011;4983;42.112;24.738;2023-05-02T03:33:33;4.97;;;4.13;;
9888;SDS011;4983;42.112;24.738;2023-05-02T03:36:00;4.60;;;4.13;;
9888;SDS011;4983;42.112;24.738;2023-05-02T03:38:28;5.63;;;4.40;;
9888;SDS011;4983;42.112;24.738;2023-05-02T03:40:55;5.37;;;4.37;;
9888;SDS011;4983;42.112;24.738;2023-05-02T03:43:22;6.40;;;4.60;;
9888;SDS011;4983;42.112;24.738;2023-05-02T03:45:50;4.57;;;3.83;;
9888;SDS011;4983;42.112;24.738;2023-05-02T03:48:19;5.70;;;4.17;;
9888;SDS011;4983;42.112;24.738;2023-05-02T03:50:45;5.50;;;4.10;;
9888;SDS011;4983;42.112;24.738;2023-05-02T03:53:13;5.00;;;3.70;;
9888;SDS011;4983;42.112;24.738;2023-05-02T03:55:40;5.97;;;4.30;;
9888;SDS011;4983;42.112;24.738;2023-05-02T03:58:08;5.57;;;4.30;;
9888;SDS011;4983;42.112;24.738;2023-05-02T04:00:36;4.47;;;3.97;;
9888;SDS011;4983;42.112;24.738;2023-05-02T04:03:04;5.60;;;4.43;;
9888;SDS011;4983;42.112;24.738;2023-05-02T04:05:31;6.40;;;4.77;;
9888;SDS011;4983;42.112;24.738;2023-05-02T04:07:58;5.43;;;4.70;;
9888;SDS011;4983;42.112;24.738;2023-05-02T04:10:25;6.10;;;4.63;;
9888;SDS011;4983;42.112;24.738;2023-05-02T04:12:51;5.57;;;4.77;;
9888;SDS011;4983;42.112;24.738;2023-05-02T04:15:18;5.57;;;4.70;;
9888;SDS011;4983;42.112;24.738;2023-05-02T04:17:45;6.87;;;5.07;;
9888;SDS011;4983;42.112;24.738;2023-05-02T04:20:13;4.70;;;4.10;;
9888;SDS011;4983;42.112;24.738;2023-05-02T04:22:41;6.20;;;4.63;;
9888;SDS011;4983;42.112;24.738;2023-05-02T04:25:08;6.33;;;4.83;;
9888;SDS011;4983;42.112;24.738;2023-05-02T04:27:34;5.93;;;5.20;;
9888;SDS011;4983;42.112;24.738;2023-05-02T04:30:02;8.03;;;5.60;;
9888;SDS011;4983;42.112;24.738;2023-05-02T04:32:29;6.17;;;5.40;;
9888;SDS011;4983;42.112;24.738;2023-05-02T04:34:56;6.67;;;5.97;;
9888;SDS011;4983;42.112;24.738;2023-05-02T04:37:24;9.50;;;5.87;;
9888;SDS011;4983;42.112;24.738;2023-05-02T04:39:51;7.23;;;5.87;;
9888;SDS011;4983;42.112;24.738;2023-05-02T04:42:17;11.70;;;6.57;;
9888;SDS011;4983;42.112;24.738;2023-05-02T04:44:44;7.03;;;6.10;;
9888;SDS011;4983;42.112;24.738;2023-05-02T04:47:11;7.73;;;6.30;;
9888;SDS011;4983;42.112;24.738;2023-05-02T04:49:37;7.33;;;5.90;;
9888;SDS011;4983;42.112;24.738;2023-05-02T04:52:04;7.50;;;6.13;;
9888;SDS011;4983;42.112;24.738;2023-05-02T04:54:32;8.90;;;6.30;;
9888;SDS011;4983;42.112;24.738;2023-05-02T04:56:59;8.67;;;6.73;;
9888;SDS011;4983;42.112;24.738;2023-05-02T04:59:28;9.70;;;6.73;;
9888;SDS011;4983;42.112;24.738;2023-05-02T05:01:54;8.20;;;6.07;;
9888;SDS011;4983;42.112;24.738;2023-05-02T05:04:21;9.10;;;6.63;;
9888;SDS011;4983;42.112;24.738;2023-05-02T05:06:48;10.47;;;6.20;;
9888;SDS011;4983;42.112;24.738;2023-05-02T05:09:14;8.23;;;6.10;;
9888;SDS011;4983;42.112;24.738;2023-05-02T05:11:42;7.37;;;5.87;;
9888;SDS011;4983;42.112;24.738;2023-05-02T05:14:10;7.57;;;5.00;;
9888;SDS011;4983;42.112;24.738;2023-05-02T05:16:37;6.70;;;5.70;;
9888;SDS011;4983;42.112;24.738;2023-05-02T05:19:03;8.43;;;5.90;;
9888;SDS011;4983;42.112;24.738;2023-05-02T05:21:30;7.47;;;5.87;;
9888;SDS011;4983;42.112;24.738;2023-05-02T05:23:57;6.87;;;5.63;;
9888;SDS011;4983;42.112;24.738;2023-05-02T05:26:23;7.90;;;5.90;;
9888;SDS011;4983;42.112;24.738;2023-05-02T05:28:52;8.40;;;5.97;;
9888;SDS011;4983;42.112;24.738;2023-05-02T05:31:18;8.57;;;6.40;;
9888;SDS011;4983;42.112;24.738;2023-05-02T05:33:46;10.53;;;5.90;;
9888;SDS011;4983;42.112;24.738;2023-05-02T05:36:12;8.60;;;5.20;;
9888;SDS011;4983;42.112;24.738;2023-05-02T05:38:39;6.20;;;5.20;;
9888;SDS011;4983;42.112;24.738;2023-05-02T05:41:06;6.20;;;5.17;;
9888;SDS011;4983;42.112;24.738;2023-05-02T05:43:33;6.43;;;5.10;;
9888;SDS011;4983;42.112;24.738;2023-05-02T05:46:01;11.53;;;5.93;;
9888;SDS011;4983;42.112;24.738;2023-05-02T05:48:28;6.13;;;5.30;;
9888;SDS011;4983;42.112;24.738;2023-05-02T05:50:55;6.73;;;5.33;;
9888;SDS011;4983;42.112;24.738;2023-05-02T05:53:22;7.43;;;5.50;;
9888;SDS011;4983;42.112;24.738;2023-05-02T05:55:49;8.73;;;5.70;;
9888;SDS011;4983;42.112;24.738;2023-05-02T05:58:15;8.13;;;5.10;;
9888;SDS011;4983;42.112;24.738;2023-05-02T06:00:42;6.53;;;5.73;;
9888;SDS011;4983;42.112;24.738;2023-05-02T06:03:10;7.70;;;5.17;;
9888;SDS011;4983;42.112;24.738;2023-05-02T06:05:36;8.00;;;5.77;;
9888;SDS011;4983;42.112;24.738;2023-05-02T06:08:03;6.87;;;5.10;;
9888;SDS011;4983;42.112;24.738;2023-05-02T06:10:30;7.53;;;4.97;;
9888;SDS011;4983;42.112;24.738;2023-05-02T06:12:56;7.27;;;5.23;;
9888;SDS011;4983;42.112;24.738;2023-05-02T06:15:23;9.23;;;5.37;;
9888;SDS011;4983;42.112;24.738;2023-05-02T06:17:50;7.07;;;5.43;;
9888;SDS011;4983;42.112;24.738;2023-05-02T06:20:18;9.00;;;5.90;;
9888;SDS011;4983;42.112;24.738;2023-05-02T06:22:45;8.33;;;5.80;;
9888;SDS011;4983;42.112;24.738;2023-05-02T06:25:12;16.17;;;8.07;;
9888;SDS011;4983;42.112;24.738;2023-05-02T06:27:39;24.67;;;10.33;;
9888;SDS011;4983;42.112;24.738;2023-05-02T06:30:06;10.67;;;6.47;;
9888;SDS011;4983;42.112;24.738;2023-05-02T06:32:33;7.27;;;4.83;;
9888;SDS011;4983;42.112;24.738;2023-05-02T06:35:00;6.30;;;5.40;;
9888;SDS011;4983;42.112;24.738;2023-05-02T06:37:28;5.67;;;4.90;;
9888;SDS011;4983;42.112;24.738;2023-05-02T06:39:57;5.37;;;4.80;;
9888;SDS011;4983;42.112;24.738;2023-05-02T06:42:24;7.30;;;4.93;;
9888;SDS011;4983;42.112;24.738;2023-05-02T06:44:50;5.90;;;4.23;;
9888;SDS011;4983;42.112;24.738;2023-05-02T06:47:17;5.23;;;4.73;;
9888;SDS011;4983;42.112;24.738;2023-05-02T06:49:44;5.03;;;4.40;;
9888;SDS011;4983;42.112;24.738;2023-05-02T06:52:10;7.07;;;4.43;;
9888;SDS011;4983;42.112;24.738;2023-05-02T06:54:38;6.50;;;4.37;;
9888;SDS011;4983;42.112;24.738;2023-05-02T06:57:06;4.00;;;3.67;;
9888;SDS011;4983;42.112;24.738;2023-05-02T06:59:33;5.10;;;4.10;;
9888;SDS011;4983;42.112;24.738;2023-05-02T07:02:01;4.23;;;3.83;;
9888;SDS011;4983;42.112;24.738;2023-05-02T07:04:29;6.00;;;4.13;;
9888;SDS011;4983;42.112;24.738;2023-05-02T07:06:56;6.80;;;4.40;;
9888;SDS011;4983;42.112;24.738;2023-05-02T07:09:23;5.83;;;4.27;;
9888;SDS011;4983;42.112;24.738;2023-05-02T07:11:51;4.60;;;3.70;;
9888;SDS011;4983;42.112;24.738;2023-05-02T07:14:17;5.80;;;4.10;;
9888;SDS011;4983;42.112;24.738;2023-05-02T07:16:44;4.37;;;3.63;;
9888;SDS011;4983;42.112;24.738;2023-05-02T07:19:12;4.83;;;3.83;;
9888;SDS011;4983;42.112;24.738;2023-05-02T07:21:39;5.70;;;4.17;;
9888;SDS011;4983;42.112;24.738;2023-05-02T07:24:06;4.67;;;4.17;;
9888;SDS011;4983;42.112;24.738;2023-05-02T07:26:32;3.63;;;3.33;;
9888;SDS011;4983;42.112;24.738;2023-05-02T07:29:00;3.77;;;3.10;;
9888;SDS011;4983;42.112;24.738;2023-05-02T07:31:27;2.83;;;2.60;;
9888;SDS011;4983;42.112;24.738;2023-05-02T07:33:54;2.90;;;2.60;;
9888;SDS011;4983;42.112;24.738;2023-05-02T07:36:23;2.63;;;2.23;;
9888;SDS011;4983;42.112;24.738;2023-05-02T07:38:49;3.20;;;2.30;;
9888;SDS011;4983;42.112;24.738;2023-05-02T07:41:16;3.00;;;2.30;;
9888;SDS011;4983;42.112;24.738;2023-05-02T07:43:43;2.43;;;1.80;;
9888;SDS011;4983;42.112;24.738;2023-05-02T07:46:11;2.30;;;1.97;;
9888;SDS011;4983;42.112;24.738;2023-05-02T07:48:38;4.10;;;1.40;;
9888;SDS011;4983;42.112;24.738;2023-05-02T07:51:06;2.07;;;1.83;;
9888;SDS011;4983;42.112;24.738;2023-05-02T07:53:34;1.90;;;1.60;;
9888;SDS011;4983;42.112;24.738;2023-05-02T07:56:02;3.77;;;2.57;;
9888;SDS011;4983;42.112;24.738;2023-05-02T07:58:29;4.63;;;2.63;;
9888;SDS011;4983;42.112;24.738;2023-05-02T08:00:56;2.33;;;1.90;;
9888;SDS011;4983;42.112;24.738;2023-05-02T08:03:24;2.73;;;2.03;;
9888;SDS011;4983;42.112;24.738;2023-05-02T08:05:51;2.73;;;1.90;;
9888;SDS011;4983;42.112;24.738;2023-05-02T08:08:17;2.77;;;2.10;;
9888;SDS011;4983;42.112;24.738;2023-05-02T08:10:44;2.10;;;1.77;;
9888;SDS011;4983;42.112;24.738;2023-05-02T08:13:11;1.60;;;1.50;;
9888;SDS011;4983;42.112;24.738;2023-05-02T08:15:37;1.67;;;1.50;;
9888;SDS011;4983;42.112;24.738;2023-05-02T08:18:06;2.50;;;1.60;;
9888;SDS011;4983;42.112;24.738;2023-05-02T08:20:35;1.50;;;1.40;;
9888;SDS011;4983;42.112;24.738;2023-05-02T08:23:02;2.37;;;1.73;;
9888;SDS011;4983;42.112;24.738;2023-05-02T08:25:29;4.13;;;1.47;;
9888;SDS011;4983;42.112;24.738;2023-05-02T08:27:56;1.63;;;1.20;;
9888;SDS011;4983;42.112;24.738;2023-05-02T08:30:24;1.87;;;1.40;;
9888;SDS011;4983;42.112;24.738;2023-05-02T08:32:50;1.77;;;1.50;;
9888;SDS011;4983;42.112;24.738;2023-05-02T08:35:17;1.30;;;1.20;;
9888;SDS011;4983;42.112;24.738;2023-05-02T08:37:46;2.60;;;1.40;;
9888;SDS011;4983;42.112;24.738;2023-05-02T08:40:12;1.10;;;1.00;;
9888;SDS011;4983;42.112;24.738;2023-05-02T08:42:40;1.70;;;1.40;;
9888;SDS011;4983;42.112;24.738;2023-05-02T08:45:07;1.30;;;1.20;;
9888;SDS011;4983;42.112;24.738;2023-05-02T08:47:34;1.47;;;1.00;;
9888;SDS011;4983;42.112;24.738;2023-05-02T08:50:02;1.20;;;1.10;;
9888;SDS011;4983;42.112;24.738;2023-05-02T08:52:29;1.77;;;1.37;;
9888;SDS011;4983;42.112;24.738;2023-05-02T08:54:59;2.40;;;1.23;;
9888;SDS011;4983;42.112;24.738;2023-05-02T08:57:27;1.53;;;1.10;;
9888;SDS011;4983;42.112;24.738;2023-05-02T08:59:54;1.40;;;1.00;;
9888;SDS011;4983;42.112;24.738;2023-05-02T09:02:22;2.77;;;1.40;;
9888;SDS011;4983;42.112;24.738;2023-05-02T09:04:53;1.53;;;1.37;;
9888;SDS011;4983;42.112;24.738;2023-05-02T09:07:23;3.77;;;1.27;;
9888;SDS011;4983;42.112;24.738;2023-05-02T09:09:50;3.37;;;1.57;;
9888;SDS011;4983;42.112;24.738;2023-05-02T09:12:17;1.20;;;1.03;;
9888;SDS011;4983;42.112;24.738;2023-05-02T09:15:04;1.70;;;1.23;;
9888;SDS011;4983;42.112;24.738;2023-05-02T09:17:37;4.50;;;1.67;;
9888;SDS011;4983;42.112;24.738;2023-05-02T09:20:05;2.87;;;1.27;;
9888;SDS011;4983;42.112;24.738;2023-05-02T09:22:33;1.87;;;1.67;;
9888;SDS011;4983;42.112;24.738;2023-05-02T09:25:00;4.37;;;1.53;;
9888;SDS011;4983;42.112;24.738;2023-05-02T09:27:28;2.67;;;1.27;;
9888;SDS011;4983;42.112;24.738;2023-05-02T09:30:07;2.37;;;1.30;;
9888;SDS011;4983;42.112;24.738;2023-05-02T09:32:45;1.13;;;1.00;;
9888;SDS011;4983;42.112;24.738;2023-05-02T09:35:12;1.00;;;0.90;;
9888;SDS011;4983;42.112;24.738;2023-05-02T09:37:48;1.20;;;1.10;;
9888;SDS011;4983;42.112;24.738;2023-05-02T09:40:15;1.57;;;1.20;;
9888;SDS011;4983;42.112;24.738;2023-05-02T09:42:45;2.00;;;1.10;;
9888;SDS011;4983;42.112;24.738;2023-05-02T09:45:21;1.23;;;1.00;;
9888;SDS011;4983;42.112;24.738;2023-05-02T09:47:48;3.00;;;1.67;;
9888;SDS011;4983;42.112;24.738;2023-05-02T09:50:34;3.63;;;1.63;;
9888;SDS011;4983;42.112;24.738;2023-05-02T09:53:01;1.30;;;1.07;;
9888;SDS011;4983;42.112;24.738;2023-05-02T09:55:28;2.23;;;1.00;;
9888;SDS011;4983;42.112;24.738;2023-05-02T09:57:57;1.27;;;1.17;;
9888;SDS011;4983;42.112;24.738;2023-05-02T10:00:36;1.57;;;1.27;;
9888;SDS011;4983;42.112;24.738;2023-05-02T10:03:05;1.30;;;1.13;;
9888;SDS011;4983;42.112;24.738;2023-05-02T10:05:32;1.10;;;1.00;;
9888;SDS011;4983;42.112;24.738;2023-05-02T10:08:00;2.17;;;1.00;;
9888;SDS011;4983;42.112;24.738;2023-05-02T10:10:29;1.20;;;1.10;;
9888;SDS011;4983;42.112;24.738;2023-05-02T10:12:58;1.83;;;1.17;;
9888;SDS011;4983;42.112;24.738;2023-05-02T10:15:26;1.50;;;1.07;;
9888;SDS011;4983;42.112;24.738;2023-05-02T10:17:57;2.23;;;1.20;;
9888;SDS011;4983;42.112;24.738;2023-05-02T10:20:24;1.20;;;1.00;;
9888;SDS011;4983;42.112;24.738;2023-05-02T10:23:00;3.50;;;0.97;;
9888;SDS011;4983;42.112;24.738;2023-05-02T10:25:29;1.10;;;1.00;;
9888;SDS011;4983;42.112;24.738;2023-05-02T10:27:57;1.63;;;1.00;;
9888;SDS011;4983;42.112;24.738;2023-05-02T10:30:25;1.43;;;1.00;;
9888;SDS011;4983;42.112;24.738;2023-05-02T10:32:52;0.93;;;0.87;;
9888;SDS011;4983;42.112;24.738;2023-05-02T10:35:19;1.20;;;1.07;;
9888;SDS011;4983;42.112;24.738;2023-05-02T10:37:46;1.23;;;1.13;;
9888;SDS011;4983;42.112;24.738;2023-05-02T10:40:14;1.53;;;1.10;;
9888;SDS011;4983;42.112;24.738;2023-05-02T10:42:41;1.00;;;0.83;;
9888;SDS011;4983;42.112;24.738;2023-05-02T10:45:12;1.83;;;0.93;;
9888;SDS011;4983;42.112;24.738;2023-05-02T10:47:38;1.07;;;0.97;;
9888;SDS011;4983;42.112;24.738;2023-05-02T10:50:06;1.10;;;0.90;;
9888;SDS011;4983;42.112;24.738;2023-05-02T10:52:33;1.33;;;1.10;;
9888;SDS011;4983;42.112;24.738;2023-05-02T10:55:16;1.33;;;0.90;;
9888;SDS011;4983;42.112;24.738;2023-05-02T11:00:31;1.00;;;0.90;;
9888;SDS011;4983;42.112;24.738;2023-05-02T11:02:59;1.20;;;0.90;;
9888;SDS011;4983;42.112;24.738;2023-05-02T11:05:26;1.33;;;0.93;;
9888;SDS011;4983;42.112;24.738;2023-05-02T11:10:40;1.90;;;1.00;;
9888;SDS011;4983;42.112;24.738;2023-05-02T11:13:07;1.10;;;0.90;;
9888;SDS011;4983;42.112;24.738;2023-05-02T11:18:21;1.77;;;1.00;;
9888;SDS011;4983;42.112;24.738;2023-05-02T11:20:49;2.27;;;1.30;;
9888;SDS011;4983;42.112;24.738;2023-05-02T11:23:20;1.00;;;0.90;;
9888;SDS011;4983;42.112;24.738;2023-05-02T11:25:50;0.97;;;0.87;;
9888;SDS011;4983;42.112;24.738;2023-05-02T11:34:00;1.00;;;0.90;;
9888;SDS011;4983;42.112;24.738;2023-05-02T11:36:27;0.90;;;0.80;;
9888;SDS011;4983;42.112;24.738;2023-05-02T11:38:54;1.10;;;1.00;;
9888;SDS011;4983;42.112;24.738;2023-05-02T11:41:22;2.17;;;1.00;;
9888;SDS011;4983;42.112;24.738;2023-05-02T11:43:50;2.47;;;0.87;;
9888;SDS011;4983;42.112;24.738;2023-05-02T11:46:27;1.33;;;1.00;;
9888;SDS011;4983;42.112;24.738;2023-05-02T11:48:54;1.50;;;1.10;;
9888;SDS011;4983;42.112;24.738;2023-05-02T11:51:22;2.07;;;0.83;;
9888;SDS011;4983;42.112;24.738;2023-05-02T11:53:49;1.70;;;0.90;;
9888;SDS011;4983;42.112;24.738;2023-05-02T11:56:16;1.47;;;0.97;;
9888;SDS011;4983;42.112;24.738;2023-05-02T11:58:56;6.57;;;1.57;;
9888;SDS011;4983;42.112;24.738;2023-05-02T12:01:23;4.07;;;1.33;;
9888;SDS011;4983;42.112;24.738;2023-05-02T12:03:50;1.40;;;1.00;;
9888;SDS011;4983;42.112;24.738;2023-05-02T12:06:28;1.87;;;1.20;;
9888;SDS011;4983;42.112;24.738;2023-05-02T12:09:04;2.63;;;1.63;;
9888;SDS011;4983;42.112;24.738;2023-05-02T12:11:32;4.57;;;1.63;;
9888;SDS011;4983;42.112;24.738;2023-05-02T12:13:59;6.57;;;2.33;;
9888;SDS011;4983;42.112;24.738;2023-05-02T12:16:25;7.63;;;1.90;;
9888;SDS011;4983;42.112;24.738;2023-05-02T12:18:52;3.30;;;1.30;;
9888;SDS011;4983;42.112;24.738;2023-05-02T12:21:20;3.37;;;1.43;;
9888;SDS011;4983;42.112;24.738;2023-05-02T12:23:49;1.63;;;1.20;;
9888;SDS011;4983;42.112;24.738;2023-05-02T12:26:16;1.60;;;1.20;;
9888;SDS011;4983;42.112;24.738;2023-05-02T12:28:47;3.83;;;1.00;;
9888;SDS011;4983;42.112;24.738;2023-05-02T12:31:16;2.57;;;1.10;;
9888;SDS011;4983;42.112;24.738;2023-05-02T12:33:42;1.70;;;1.00;;
9888;SDS011;4983;42.112;24.738;2023-05-02T12:36:09;2.10;;;0.87;;
9888;SDS011;4983;42.112;24.738;2023-05-02T12:38:38;2.33;;;1.03;;
9888;SDS011;4983;42.112;24.738;2023-05-02T12:41:07;2.73;;;1.10;;
9888;SDS011;4983;42.112;24.738;2023-05-02T12:43:42;1.60;;;1.10;;
9888;SDS011;4983;42.112;24.738;2023-05-02T12:46:09;2.70;;;1.00;;
9888;SDS011;4983;42.112;24.738;2023-05-02T12:48:36;1.57;;;1.00;;
9888;SDS011;4983;42.112;24.738;2023-05-02T12:51:03;1.13;;;0.80;;
9888;SDS011;4983;42.112;24.738;2023-05-02T12:53:39;0.87;;;0.70;;
9888;SDS011;4983;42.112;24.738;2023-05-02T12:56:09;1.23;;;1.00;;
9888;SDS011;4983;42.112;24.738;2023-05-02T12:58:39;1.30;;;1.10;;
9888;SDS011;4983;42.112;24.738;2023-05-02T13:01:06;2.20;;;1.40;;
9888;SDS011;4983;42.112;24.738;2023-05-02T13:03:33;1.63;;;1.23;;
9888;SDS011;4983;42.112;24.738;2023-05-02T13:06:00;6.40;;;1.90;;
9888;SDS011;4983;42.112;24.738;2023-05-02T13:08:26;3.40;;;1.20;;
9888;SDS011;4983;42.112;24.738;2023-05-02T13:10:53;2.67;;;0.73;;
9888;SDS011;4983;42.112;24.738;2023-05-02T13:13:22;3.97;;;1.10;;
9888;SDS011;4983;42.112;24.738;2023-05-02T13:15:48;0.97;;;0.90;;
9888;SDS011;4983;42.112;24.738;2023-05-02T13:18:15;1.77;;;0.87;;
9888;SDS011;4983;42.112;24.738;2023-05-02T13:20:42;1.73;;;0.90;;
9888;SDS011;4983;42.112;24.738;2023-05-02T13:23:09;1.20;;;1.10;;
9888;SDS011;4983;42.112;24.738;2023-05-02T13:25:36;1.80;;;1.00;;
9888;SDS011;4983;42.112;24.738;2023-05-02T13:28:04;1.10;;;0.90;;
9888;SDS011;4983;42.112;24.738;2023-05-02T13:30:32;2.40;;;1.30;;
9888;SDS011;4983;42.112;24.738;2023-05-02T13:32:58;1.20;;;1.03;;
9888;SDS011;4983;42.112;24.738;2023-05-02T13:35:25;1.27;;;0.93;;
9888;SDS011;4983;42.112;24.738;2023-05-02T13:37:52;1.17;;;0.90;;
9888;SDS011;4983;42.112;24.738;2023-05-02T13:40:19;3.53;;;1.10;;
9888;SDS011;4983;42.112;24.738;2023-05-02T13:42:47;3.50;;;1.03;;
9888;SDS011;4983;42.112;24.738;2023-05-02T13:45:13;1.73;;;0.90;;
9888;SDS011;4983;42.112;24.738;2023-05-02T13:47:44;1.27;;;0.90;;
9888;SDS011;4983;42.112;24.738;2023-05-02T13:50:10;1.37;;;1.13;;
9888;SDS011;4983;42.112;24.738;2023-05-02T13:52:37;1.40;;;0.80;;
9888;SDS011;4983;42.112;24.738;2023-05-02T13:55:05;1.40;;;0.93;;
9888;SDS011;4983;42.112;24.738;2023-05-02T13:57:33;1.77;;;0.83;;
9888;SDS011;4983;42.112;24.738;2023-05-02T14:00:00;2.00;;;0.90;;
9888;SDS011;4983;42.112;24.738;2023-05-02T14:02:26;2.63;;;1.30;;
9888;SDS011;4983;42.112;24.738;2023-05-02T14:04:55;2.70;;;0.90;;
9888;SDS011;4983;42.112;24.738;2023-05-02T14:07:21;0.70;;;0.70;;
9888;SDS011;4983;42.112;24.738;2023-05-02T14:09:48;2.67;;;1.00;;
9888;SDS011;4983;42.112;24.738;2023-05-02T14:12:15;1.50;;;1.07;;
9888;SDS011;4983;42.112;24.738;2023-05-02T14:14:41;1.50;;;0.90;;
9888;SDS011;4983;42.112;24.738;2023-05-02T14:17:08;1.20;;;0.80;;
9888;SDS011;4983;42.112;24.738;2023-05-02T14:19:35;1.13;;;0.90;;
9888;SDS011;4983;42.112;24.738;2023-05-02T14:22:03;0.80;;;0.80;;
9888;SDS011;4983;42.112;24.738;2023-05-02T14:24:30;2.47;;;1.10;;
9888;SDS011;4983;42.112;24.738;2023-05-02T14:26:58;1.30;;;1.20;;
9888;SDS011;4983;42.112;24.738;2023-05-02T14:29:27;1.37;;;1.00;;
9888;SDS011;4983;42.112;24.738;2023-05-02T14:31:53;3.33;;;1.10;;
9888;SDS011;4983;42.112;24.738;2023-05-02T14:34:21;1.00;;;0.70;;
9888;SDS011;4983;42.112;24.738;2023-05-02T14:36:51;1.30;;;1.03;;
9888;SDS011;4983;42.112;24.738;2023-05-02T14:39:19;0.90;;;0.80;;
9888;SDS011;4983;42.112;24.738;2023-05-02T14:41:47;1.33;;;0.90;;
9888;SDS011;4983;42.112;24.738;2023-05-02T14:44:14;2.40;;;1.00;;
9888;SDS011;4983;42.112;24.738;2023-05-02T14:46:42;0.90;;;0.90;;
9888;SDS011;4983;42.112;24.738;2023-05-02T14:49:09;0.83;;;0.83;;
9888;SDS011;4983;42.112;24.738;2023-05-02T14:51:36;1.23;;;1.10;;
9888;SDS011;4983;42.112;24.738;2023-05-02T14:54:02;1.73;;;1.07;;
9888;SDS011;4983;42.112;24.738;2023-05-02T14:56:31;1.13;;;1.00;;
9888;SDS011;4983;42.112;24.738;2023-05-02T14:58:58;1.00;;;0.90;;
9888;SDS011;4983;42.112;24.738;2023-05-02T15:01:25;1.43;;;1.20;;
9888;SDS011;4983;42.112;24.738;2023-05-02T15:03:53;2.37;;;1.27;;
9888;SDS011;4983;42.112;24.738;2023-05-02T15:06:20;1.70;;;1.07;;
9888;SDS011;4983;42.112;24.738;2023-05-02T15:08:47;2.17;;;1.10;;
9888;SDS011;4983;42.112;24.738;2023-05-02T15:11:14;1.37;;;1.00;;
9888;SDS011;4983;42.112;24.738;2023-05-02T15:13:42;1.40;;;1.10;;
9888;SDS011;4983;42.112;24.738;2023-05-02T15:16:09;1.00;;;0.90;;
9888;SDS011;4983;42.112;24.738;2023-05-02T15:18:37;1.23;;;0.97;;